• Join FlightAware (Why Join?)
  • Login
  • US Flag 
08:41PM EDT


 

Airport Tracker/Info


-or-


 

Live Flight TrackerFlight Track Log ✈ EJA820 ✈ 22-Apr-2013 ✈ KSAV - KTEB

Flight Track Log - Related Links

Times and Time Zones

All times are in EDT time to prevent confusion due to time zone crossing. See the EJA820 flight status page for this flight to view local times or setup timezone preferences in your user account.

Time Position Orientation Groundspeed Altitude Reporting Facility
EDT Latitude Longitude Course Direction KTS MPH feet Rate Location/Type
05:06AM 32.1631 -81.1625 33° Northeast 163 188 3,800  Level Jacksonville Center
05:07AM 32.2147 -81.1269 30° Northeast 198 228 6,200 2,820 Climbing Jacksonville Center
05:08AM 32.2894 -81.0889 23° Northeast 251 289 9,500 3,000 Climbing Jacksonville Center
05:09AM 32.3558 -81.0556 23° Northeast 277 319 12,200 2,400 Climbing Jacksonville Center
05:10AM 32.4322 -81.0144 24° Northeast 287 330 14,400 2,100 Climbing Jacksonville Center
05:11AM 32.7309 -80.7623 33° Northeast  Level FlightAware Approximate
05:11AM 32.5131 -80.9736 23° Northeast 299 344 16,500  Level Jacksonville Center
05:12AM 32.6042 -80.9272 23° Northeast 324 373 18,300 1,920 Climbing Jacksonville Center
05:13AM 32.6956 -80.8833 22° Northeast 337 388 20,400 1,980 Climbing Jacksonville Center
05:14AM 32.7886 -80.8367 23° Northeast 350 403 22,300 1,800 Climbing Jacksonville Center
05:15AM 32.8858 -80.7875 23° Northeast 361 415 24,000 1,620 Climbing Jacksonville Center
05:16AM 32.9872 -80.7356 23° Northeast 372 428 25,600 1,620 Climbing Jacksonville Center
05:17AM 33.0928 -80.6808 23° Northeast 395 455 27,300 1,620 Climbing Jacksonville Center
05:18AM 33.2025 -80.6286 22° Northeast 408 470 28,900 1,620 Climbing Jacksonville Center
05:19AM 33.3142 -80.5711 23° Northeast 419 482 30,600 1,620 Climbing Jacksonville Center
05:20AM 33.4342 -80.5106 23° Northeast 424 488 32,200 1,500 Climbing Jacksonville Center
05:21AM 33.5458 -80.4528 23° Northeast 424 488 33,700 1,260 Climbing Jacksonville Center
05:22AM 33.6531 -80.3925 25° Northeast 429 494 34,800 600 Climbing Jacksonville Center
05:23AM 33.7683 -80.3192 28° Northeast 444 511 35,000 60 Climbing Jacksonville Center
05:24AM 33.9792 -80.1869 27° Northeast 476 548 35,000  Level Washington Center
05:25AM 34.0906 -80.1131 29° Northeast 490 564 35,000  Level Washington Center
05:26AM 34.2142 -80.0394 26° Northeast 499 574 35,000  Level Washington Center
05:27AM 34.3511 -79.9511 28° Northeast 508 585 35,000  Level Washington Center
05:28AM 34.4750 -79.8722 28° Northeast 503 579 35,000  Level Washington Center
05:29AM 34.5989 -79.7928 28° Northeast 503 579 35,000  Level Washington Center
05:30AM 34.7225 -79.7108 29° Northeast 503 579 35,000  Level Washington Center
05:31AM 34.8506 -79.6311 27° Northeast 508 585 35,000  Level Washington Center
05:32AM 34.9764 -79.5489 28° Northeast 508 585 35,000  Level Washington Center
05:33AM 35.1022 -79.4661 28° Northeast 508 585 35,000  Level Washington Center
05:34AM 35.2300 -79.3833 28° Northeast 508 585 35,000 -120 Level Washington Center
05:35AM 35.3578 -79.3000 28° Northeast 508 585 34,800 -300 Descending Washington Center
05:36AM 35.4772 -79.2214 28° Northeast 502 578 34,400 -420 Descending Washington Center
05:37AM 35.5964 -79.1400 29° Northeast 495 570 34,000 -240 Descending Washington Center
05:38AM 35.7181 -79.0483 31° Northeast 500 575 34,000  Level Washington Center
05:39AM 35.8417 -78.9614 30° Northeast 500 575 34,000  Level Washington Center
05:40AM 35.9631 -78.8692 32° Northeast 505 581 34,000  Level Washington Center
05:41AM 36.0867 -78.7792 30° Northeast 505 581 34,000  Level Washington Center
05:42AM 36.2058 -78.6886 32° Northeast 505 581 34,000  Level Washington Center
05:43AM 36.3269 -78.5956 32° Northeast 505 581 34,000  Level Washington Center
05:44AM 36.4483 -78.5047 31° Northeast 505 581 34,000  Level Washington Center
05:45AM 36.5714 -78.4161 30° Northeast 505 581 34,000  Level Washington Center
05:46AM 36.6650 -78.3419 32° Northeast 505 581 34,000  Level Washington Center
05:47AM 36.7925 -78.2400 33° Northeast 500 575 34,000  Level Washington Center
05:48AM 36.9131 -78.1533 30° Northeast 500 575 34,000  Level Washington Center
05:49AM 37.0339 -78.0611 31° Northeast 500 575 34,000  Level Washington Center
05:50AM 37.1506 -77.9708 32° Northeast 500 575 34,000  Level Washington Center
05:51AM 37.2714 -77.8781 31° Northeast 505 581 34,000  Level Washington Center
05:52AM 37.3919 -77.7850 32° Northeast 505 581 34,000  Level Washington Center
05:53AM 37.5103 -77.6942 31° Northeast 505 581 34,000  Level Washington Center
05:54AM 37.6289 -77.6003 32° Northeast 505 581 34,000  Level Washington Center
05:55AM 37.7450 -77.5089 32° Northeast 500 575 34,000  Level Washington Center
05:56AM 37.8633 -77.4147 32° Northeast 500 575 34,000  Level Washington Center
05:57AM 37.9814 -77.3225 32° Northeast 500 575 34,000  Level Washington Center
05:58AM 38.0994 -77.2331 31° Northeast 500 575 34,000  Level Washington Center
05:59AM 38.2175 -77.1325 34° Northeast 500 575 34,000  Level Washington Center
06:00AM 38.3333 -77.0450 31° Northeast 495 570 34,000  Level Washington Center
06:01AM 38.4533 -76.9517 31° Northeast 495 570 34,000  Level Washington Center
06:02AM 38.5689 -76.8556 33° Northeast 500 575 34,000  Level Washington Center
06:03AM 38.6847 -76.7592 33° Northeast 500 575 34,000  Level Washington Center
06:04AM 38.7919 -76.6436 40° Northeast 500 575 34,000 -720 Level Washington Center
06:05AM 38.8950 -76.5250 42° Northeast 500 575 32,600 -1,920 Descending Washington Center
06:06AM 38.9961 -76.4117 41° Northeast 489 563 30,200 -2,340 Descending Washington Center
06:07AM 39.0906 -76.2950 44° Northeast 479 551 28,000 -2,220 Descending Washington Center
06:08AM 39.1869 -76.1861 41° Northeast 471 542 25,800 -2,280 Descending Washington Center
06:10AM 39.3483 -76.0186 39° Northeast 419 482 22,200 -2,280 Descending FAA TRACON SMA TRACON (SMA)
06:10AM 39.3778 -75.9914 36° Northeast 420 483 21,500 -2,040 Descending FAA TRACON SMA TRACON (SMA)
06:11AM 39.4064 -75.9633 37° Northeast 420 483 20,900 -1,800 Descending FAA TRACON SMA TRACON (SMA)
06:11AM 39.4350 -75.9358 37° Northeast 419 482 20,300 -1,980 Descending FAA TRACON SMA TRACON (SMA)
06:11AM 39.4700 -75.9022 37° Northeast 410 472 19,600 -1,800 Descending FAA TRACON SMA TRACON (SMA)
06:12AM 39.4975 -75.8792 33° Northeast 397 457 19,100 -1,680 Descending FAA TRACON SMA TRACON (SMA)
06:12AM 39.5228 -75.8522 39° Northeast 380 437 18,500 -1,980 Descending FAA TRACON SMA TRACON (SMA)
06:12AM 39.5517 -75.8244 37° Northeast 377 434 17,800 -1,080 Descending FAA TRACON SMA TRACON (SMA)
06:13AM 39.5806 -75.7978 35° Northeast 379 436 17,800 -1,200 Level FAA TRACON SMA TRACON (SMA)
06:13AM 39.6153 -75.7653 36° Northeast 383 441 17,000 -2,400 Descending FAA TRACON SMA TRACON (SMA)
06:13AM 39.6422 -75.7408 35° Northeast 382 440 16,200 -2,280 Descending FAA TRACON SMA TRACON (SMA)
06:14AM 39.6681 -75.7169 35° Northeast 376 433 15,500 -2,100 Descending FAA TRACON SMA TRACON (SMA)
06:14AM 39.6925 -75.6942 36° Northeast 362 417 14,800 -1,980 Descending FAA TRACON SMA TRACON (SMA)
06:14AM 39.7206 -75.6694 34° Northeast 351 404 14,200 -1,680 Descending FAA TRACON SMA TRACON (SMA)
06:15AM 39.7486 -75.6431 36° Northeast 355 409 13,700 -1,740 Descending FAA TRACON SMA TRACON (SMA)
06:15AM 39.7794 -75.6156 34° Northeast 354 407 13,100 -1,080 Descending FAA TRACON SMA TRACON (SMA)
06:15AM 39.8011 -75.5944 37° Northeast 348 400 13,000 -180 Descending FAA TRACON SMA TRACON (SMA)
06:16AM 39.8267 -75.5714 35° Northeast 331 381 13,000  Level FAA TRACON SMA TRACON (SMA)
06:16AM 39.8503 -75.5494 36° Northeast 338 389 13,000  Level FAA TRACON SMA TRACON (SMA)
06:16AM 39.8786 -75.5242 34° Northeast 348 400 13,000  Level FAA TRACON SMA TRACON (SMA)
06:17AM 39.9058 -75.4981 36° Northeast 352 405 13,000  Level FAA TRACON SMA TRACON (SMA)
06:17AM 39.9311 -75.4747 35° Northeast 357 411 13,000  Level FAA TRACON SMA TRACON (SMA)
06:17AM 39.9600 -75.4464 37° Northeast 359 413 13,000  Level FAA TRACON SMA TRACON (SMA)
06:18AM 39.9867 -75.4239 33° Northeast 358 412 13,000  Level FAA TRACON SMA TRACON (SMA)
06:18AM 40.0125 -75.3997 36° Northeast 358 412 13,000  Level FAA TRACON SMA TRACON (SMA)
06:18AM 40.0419 -75.3719 36° Northeast 357 411 13,000  Level FAA TRACON SMA TRACON (SMA)
06:19AM 40.0681 -75.3472 36° Northeast 355 409 13,000  Level FAA TRACON SMA TRACON (SMA)
06:19AM 40.0936 -75.3239 35° Northeast 352 405 13,000  Level FAA TRACON SMA TRACON (SMA)
06:19AM 40.1214 -75.2964 37° Northeast 349 402 13,000  Level FAA TRACON SMA TRACON (SMA)
06:20AM 40.1481 -75.2728 34° Northeast 348 400 13,000 -480 Level FAA TRACON SMA TRACON (SMA)
06:20AM 40.1717 -75.2486 38° Northeast 346 398 12,700 -1,080 Descending FAA TRACON SMA TRACON (SMA)
06:20AM 40.1961 -75.2278 33° Northeast 343 395 12,300 -1,500 Descending FAA TRACON SMA TRACON (SMA)
06:21AM 40.2244 -75.2019 35° Northeast 315 362 11,700 -1,620 Descending FAA TRACON SMA TRACON (SMA)
06:21AM 40.2425 -75.1833 38° Northeast 307 353 11,200 -1,500 Descending FAA TRACON SMA TRACON (SMA)
06:21AM 40.2667 -75.1622 34° Northeast 300 345 10,700 -1,800 Descending FAA TRACON SMA TRACON (SMA)
06:22AM 40.2914 -75.1389 36° Northeast 300 345 10,000 -1,680 Descending FAA TRACON SMA TRACON (SMA)
06:22AM 40.3100 -75.1192 39° Northeast 299 344 9,600 -1,680 Descending FAA TRACON SMA TRACON (SMA)
06:22AM 40.3319 -75.0961 39° Northeast 291 335 8,900 -1,980 Descending FAA TRACON SMA TRACON (SMA)
06:23AM 40.3519 -75.0678 47° Northeast 276 318 8,300 -1,500 Descending FAA TRACON SMA TRACON (SMA)
06:23AM 40.3656 -75.0467 50° Northeast 274 315 7,900 -1,500 Descending FAA TRACON SMA TRACON (SMA)
06:23AM 40.3875 -75.0192 44° Northeast 267 307 7,300 -1,680 Descending FAA TRACON SMA TRACON (SMA)
06:24AM 40.4036 -74.9956 48° Northeast 268 308 6,800 -1,500 Descending FAA TRACON SMA TRACON (SMA)
06:24AM 40.4158 -74.9717 56° Northeast 261 300 6,300 -1,500 Descending FAA TRACON SMA TRACON (SMA)
06:24AM 40.4294 -74.9400 61° Northeast 251 289 5,800 -1,500 Descending FAA TRACON SMA TRACON (SMA)
06:25AM 40.4403 -74.9158 59° Northeast 241 277 5,300 -1,380 Descending FAA TRACON SMA TRACON (SMA)
06:25AM 40.4481 -74.8928 66° East 238 274 4,900 -1,380 Descending FAA TRACON SMA TRACON (SMA)
06:25AM 40.4592 -74.8700 57° Northeast 235 270 4,400 -1,680 Descending FAA TRACON SMA TRACON (SMA)
06:26AM 40.4717 -74.8406 61° Northeast 232 267 3,800 -1,680 Descending FAA TRACON SMA TRACON (SMA)
06:26AM 40.4792 -74.8189 66° East 229 264 3,300 -1,200 Descending FAA TRACON SMA TRACON (SMA)
06:26AM 40.4903 -74.7967 57° Northeast 226 260 3,000 -480 Descending FAA TRACON SMA TRACON (SMA)
06:27AM 40.5017 -74.7697 61° Northeast 220 253 3,000  Level FAA TRACON SMA TRACON (SMA)
06:27AM 40.5061 -74.7594 60° Northeast 216 249 3,000  Level FAA TRACON SMA TRACON (SMA)
06:27AM 40.5061 -74.7594 288° West 216 249 3,000 60 Level FAA TRACON SMA TRACON (SMA)
06:28AM 40.5500 -74.6500 62° Northeast 234 269 3,100  Climbing New York TRACON
06:29AM 40.5833 -74.5833 57° Northeast 222 255 3,100  Level New York TRACON
06:30AM 40.6167 -74.5000 62° Northeast 214 246 3,100  Level New York TRACON
06:31AM 40.6333 -74.4500 66° East 213 245 3,100  Level New York TRACON
06:32AM 40.6667 -74.3833 57° Northeast 212 244 3,100 -360 Level New York TRACON
06:33AM 40.6833 -74.3167 72° East 186 214 2,500 -480 Descending New York TRACON
06:34AM 40.7167 -74.2667 49° Northeast 176 203 2,100 -480 Descending New York TRACON
06:35AM 40.7500 -74.2167 49° Northeast 174 200 1,600 -300 Descending New York TRACON
06:36AM 40.7667 -74.1833 57° Northeast 147 169 1,600  Level New York TRACON
06:37AM 40.8000 -74.1500 37° Northeast 144 166 1,600 -240 Level New York TRACON
06:38AM 40.8167 -74.1000 66° East 143 165 1,200 -600 Descending New York TRACON
06:39AM 40.8167 -74.0667 90° East 127 146 500 -780 Descending New York TRACON
06:41AM 40.8500 -74.0500 57° Northeast  Level FlightAware Approximate
06:48AM 40.8501 -74.0608 57° Northeast  Level Estimated